Time;durP1;ratioP1;P1;durP2;ratioP2;P2;SDS_P1;SDS_P2;PMS_P1;PMS_P2;Temp;Humidity;BMP_temperature;BMP_pressure;BME280_temperature;BME280_humidity;BME280_pressure;Samples;Min_cycle;Max_cycle;Signal;HPM_P1;HPM_P2
2022/10/11 00:01:51;;;;;;;5.05;1.80;;;21.30;45.30;;;;;;5042428;28;20032;-53
2022/10/11 00:04:17;;;;;;;3.85;1.48;;;21.30;45.20;;;;;;5046392;28;20064;-49
2022/10/11 00:06:43;;;;;;;3.63;1.45;;;21.30;45.20;;;;;;5045634;28;21567;-52
2022/10/11 00:09:14;;;;;;;3.55;1.50;;;21.30;45.10;;;;;;5042148;28;20052;-51
2022/10/11 00:11:41;;;;;;;4.90;1.73;;;21.30;45.10;;;;;;5041734;28;20120;-48
2022/10/11 00:14:07;;;;;;;4.18;1.50;;;21.30;45.10;;;;;;5048879;28;20178;-51
2022/10/11 00:16:33;;;;;;;3.65;1.70;;;21.30;45.10;;;;;;5050377;28;20036;-47
2022/10/11 00:18:59;;;;;;;3.58;2.03;;;21.30;45.10;;;;;;5047178;28;20454;-47
2022/10/11 00:21:25;;;;;;;3.50;1.70;;;21.30;45.10;;;;;;5048283;28;20021;-48
2022/10/11 00:23:51;;;;;;;3.42;1.55;;;21.30;45.10;;;;;;5046181;28;20033;-49
2022/10/11 00:26:17;;;;;;;3.38;1.52;;;21.30;45.10;;;;;;5049170;28;20025;-46
2022/10/11 00:28:43;;;;;;;3.75;1.63;;;21.30;45.10;;;;;;5047472;28;20029;-48
2022/10/11 00:31:14;;;;;;;4.60;1.80;;;21.30;45.00;;;;;;5046001;28;20201;-48
2022/10/11 00:33:40;;;;;;;4.20;1.92;;;21.30;45.00;;;;;;5047180;28;20756;-48
2022/10/11 00:36:07;;;;;;;4.55;1.80;;;21.30;44.90;;;;;;5050468;28;20029;-53
2022/10/11 00:38:33;;;;;;;3.38;1.58;;;21.30;44.90;;;;;;5050962;28;20078;-47
2022/10/11 00:40:59;;;;;;;3.75;1.58;;;21.30;44.90;;;;;;5053010;28;20383;-49
2022/10/11 00:43:28;;;;;;;2.80;1.60;;;21.30;44.90;;;;;;5051135;28;20043;-52
2022/10/11 00:45:56;;;;;;;3.05;1.55;;;21.30;44.80;;;;;;5050446;28;20029;-48
2022/10/11 00:48:37;;;;;;;2.72;1.48;;;21.30;44.90;;;;;;5049305;28;20025;-49
2022/10/11 00:51:12;;;;;;;3.28;1.80;;;21.30;44.80;;;;;;5048754;28;20045;-47
2022/10/11 00:53:38;;;;;;;2.90;1.45;;;21.20;44.80;;;;;;5045610;28;20452;-50
2022/10/11 00:56:11;;;;;;;4.43;1.95;;;21.30;44.80;;;;;;5050120;28;20052;-50
2022/10/11 00:58:38;;;;;;;3.20;1.40;;;21.20;44.70;;;;;;5044304;28;20564;-48
2022/10/11 01:01:04;;;;;;;2.60;1.30;;;21.20;44.70;;;;;;5048042;28;20359;-48
2022/10/11 01:03:31;;;;;;;2.80;1.45;;;21.20;44.70;;;;;;5048564;28;20025;-51
2022/10/11 01:05:57;;;;;;;2.35;1.30;;;21.20;44.70;;;;;;5048168;28;20028;-47
2022/10/11 01:08:24;;;;;;;3.20;1.60;;;21.20;44.60;;;;;;5048002;28;20075;-49
2022/10/11 01:10:51;;;;;;;3.30;1.75;;;21.20;44.70;;;;;;5048286;28;20043;-54
2022/10/11 01:13:29;;;;;;;3.33;1.40;;;21.20;44.60;;;;;;5048458;28;20247;-50
2022/10/11 01:16:10;;;;;;;2.78;1.48;;;21.20;44.60;;;;;;5047366;28;20478;-46
2022/10/11 01:19:02;;;;;;;2.97;1.48;;;21.20;44.50;;;;;;5046697;28;20128;-49
2022/10/11 01:21:51;;;;;;;4.07;1.73;;;21.20;44.50;;;;;;5047200;28;20103;-49
2022/10/11 01:24:17;;;;;;;3.38;1.42;;;21.20;44.50;;;;;;5047266;28;20033;-49
2022/10/11 01:27:07;;;;;;;2.95;1.30;;;21.20;44.50;;;;;;5050293;28;20025;-48
2022/10/11 01:30:00;;;;;;;3.70;1.60;;;21.20;44.50;;;;;;5047243;28;20032;-48
2022/10/11 01:33:02;;;;;;;5.35;1.30;;;21.20;44.50;;;;;;5046849;28;20048;-47
2022/10/11 01:35:37;;;;;;;2.83;1.60;;;21.10;44.40;;;;;;5049371;28;20104;-47
2022/10/11 01:38:31;;;;;;;3.70;1.60;;;21.20;44.50;;;;;;5048308;28;20040;-45
2022/10/11 01:41:23;;;;;;;2.58;1.60;;;21.20;44.50;;;;;;5049244;28;20032;-47
2022/10/11 01:43:54;;;;;;;3.15;1.40;;;21.20;44.50;;;;;;5046814;28;20051;-47
2022/10/11 01:46:20;;;;;;;4.30;1.60;;;21.10;44.50;;;;;;5047123;28;20459;-47
2022/10/11 01:48:51;;;;;;;2.80;1.45;;;21.10;44.50;;;;;;5044157;28;20041;-50
2022/10/11 01:51:21;;;;;;;3.30;1.60;;;21.10;44.50;;;;;;5042918;28;20120;-46
2022/10/11 01:54:02;;;;;;;2.60;1.10;;;21.10;44.50;;;;;;5048459;28;20079;-47
2022/10/11 01:56:37;;;;;;;3.13;1.58;;;21.10;44.60;;;;;;5047532;28;20029;-50
2022/10/11 01:59:18;;;;;;;2.70;1.20;;;21.10;44.60;;;;;;5043520;28;20025;-51
2022/10/11 02:02:04;;;;;;;3.05;1.30;;;21.10;44.50;;;;;;5047802;28;20345;-48
2022/10/11 02:04:36;;;;;;;2.17;1.17;;;21.10;44.50;;;;;;5047673;28;20036;-47
2022/10/11 02:07:05;;;;;;;2.53;1.30;;;21.10;44.50;;;;;;5047008;28;20025;-49
2022/10/11 02:09:57;;;;;;;3.67;1.33;;;21.10;44.50;;;;;;5047011;28;20067;-51
2022/10/11 02:12:47;;;;;;;3.95;1.30;;;21.10;44.50;;;;;;5017406;28;20049;-52
2022/10/11 02:15:16;;;;;;;2.80;1.50;;;21.10;44.50;;;;;;5046820;28;20049;-53
2022/10/11 02:17:49;;;;;;;2.80;1.30;;;21.10;44.50;;;;;;5049299;28;20333;-47
2022/10/11 02:20:20;;;;;;;2.38;1.27;;;21.10;44.50;;;;;;5044486;28;20036;-50
2022/10/11 02:22:50;;;;;;;3.70;1.60;;;21.10;44.50;;;;;;5046914;28;20437;-47
2022/10/11 02:25:25;;;;;;;2.42;1.02;;;21.10;44.50;;;;;;5049758;28;20032;-48
2022/10/11 02:27:56;;;;;;;3.75;1.35;;;21.10;44.50;;;;;;5050496;28;20021;-52
2022/10/11 02:30:22;;;;;;;3.47;1.20;;;21.10;44.50;;;;;;5046636;28;20043;-48
2022/10/11 02:32:50;;;;;;;2.03;1.00;;;21.10;44.50;;;;;;5046767;28;20025;-47
2022/10/11 02:35:16;;;;;;;2.42;1.13;;;21.10;44.40;;;;;;5048375;28;20024;-47
2022/10/11 02:37:59;;;;;;;2.40;0.93;;;21.10;44.40;;;;;;5043446;28;20037;-48
2022/10/11 02:40:34;;;;;;;3.00;1.42;;;21.10;44.40;;;;;;5045275;28;20460;-50
2022/10/11 02:43:12;;;;;;;2.17;1.30;;;21.10;44.30;;;;;;5049147;28;20504;-47
2022/10/11 02:45:42;;;;;;;2.55;1.30;;;21.10;44.30;;;;;;5046442;28;20082;-49
2022/10/11 02:48:10;;;;;;;2.88;1.27;;;21.10;44.30;;;;;;5047908;28;21736;-49
2022/10/11 02:50:38;;;;;;;2.55;1.10;;;21.10;44.40;;;;;;5045859;28;20063;-46
2022/10/11 02:53:04;;;;;;;2.58;1.10;;;21.10;44.30;;;;;;5044692;28;20032;-47
2022/10/11 02:55:30;;;;;;;2.50;1.17;;;21.10;44.30;;;;;;5044904;28;20029;-53
2022/10/11 02:57:56;;;;;;;2.08;1.23;;;21.10;44.30;;;;;;5044291;28;20547;-49
2022/10/11 03:00:22;;;;;;;1.63;1.08;;;21.00;44.20;;;;;;5043995;28;20091;-50
2022/10/11 03:02:48;;;;;;;3.35;1.48;;;21.10;44.20;;;;;;5047171;28;20025;-48
2022/10/11 03:05:14;;;;;;;1.98;1.15;;;21.00;44.10;;;;;;5047340;28;20051;-47
2022/10/11 03:07:40;;;;;;;2.15;1.17;;;21.10;44.20;;;;;;5046729;28;20040;-45
2022/10/11 03:10:06;;;;;;;2.42;1.02;;;21.10;44.20;;;;;;5044285;28;20056;-46
2022/10/11 03:12:32;;;;;;;2.95;1.33;;;21.00;44.10;;;;;;5041362;28;20072;-47
2022/10/11 03:14:58;;;;;;;2.65;1.30;;;21.00;44.10;;;;;;5048025;28;20102;-48
2022/10/11 03:17:24;;;;;;;3.22;1.27;;;21.00;44.00;;;;;;5048640;28;20417;-46
2022/10/11 03:19:49;;;;;;;2.70;1.17;;;21.00;44.00;;;;;;5044191;28;20045;-48
2022/10/11 03:22:15;;;;;;;1.80;1.10;;;21.00;44.00;;;;;;5045053;28;20122;-50
2022/10/11 03:24:41;;;;;;;2.05;1.38;;;21.00;44.00;;;;;;5045532;28;20033;-47
2022/10/11 03:27:07;;;;;;;3.90;1.05;;;21.00;44.00;;;;;;5048784;28;20463;-45
2022/10/11 03:29:33;;;;;;;2.58;1.10;;;21.00;43.90;;;;;;5049548;28;20033;-48
2022/10/11 03:31:59;;;;;;;2.10;1.13;;;21.00;43.90;;;;;;5049835;28;20047;-48
2022/10/11 03:34:24;;;;;;;2.33;1.17;;;21.00;43.90;;;;;;5045931;28;20876;-50
2022/10/11 03:36:50;;;;;;;2.92;1.27;;;21.00;43.90;;;;;;5046507;28;20378;-50
2022/10/11 03:39:16;;;;;;;3.13;1.15;;;21.00;43.90;;;;;;5041927;28;20423;-46
2022/10/11 03:41:42;;;;;;;2.35;1.10;;;21.00;43.90;;;;;;5046839;28;20032;-47
2022/10/11 03:44:08;;;;;;;2.00;1.00;;;21.00;43.90;;;;;;5045320;28;21075;-50
2022/10/11 03:46:34;;;;;;;1.92;1.00;;;20.90;43.80;;;;;;5046311;28;20043;-50
2022/10/11 03:48:59;;;;;;;2.03;1.30;;;21.00;43.80;;;;;;5042848;28;20029;-48
2022/10/11 03:51:25;;;;;;;2.33;1.10;;;21.00;43.80;;;;;;5044750;28;20094;-49
2022/10/11 03:53:51;;;;;;;3.25;1.10;;;21.00;43.80;;;;;;5048707;28;20029;-51
2022/10/11 03:56:17;;;;;;;1.42;0.88;;;21.00;43.80;;;;;;5049556;28;20051;-49
2022/10/11 03:58:42;;;;;;;1.88;0.98;;;21.00;43.80;;;;;;5044872;28;20029;-47
2022/10/11 04:01:09;;;;;;;1.63;0.90;;;20.90;43.80;;;;;;5045339;28;20029;-48
2022/10/11 04:03:34;;;;;;;2.95;1.00;;;21.00;43.80;;;;;;5048678;28;20024;-50
2022/10/11 04:06:00;;;;;;;1.95;0.95;;;20.90;43.80;;;;;;5047484;28;20048;-50
2022/10/11 04:08:26;;;;;;;2.80;1.40;;;20.90;43.80;;;;;;5046287;28;20080;-46
2022/10/11 04:10:52;;;;;;;2.67;1.27;;;20.90;43.70;;;;;;5045692;28;20068;-48
2022/10/11 04:13:18;;;;;;;3.25;1.00;;;20.90;43.80;;;;;;5048994;28;20028;-47
2022/10/11 04:15:44;;;;;;;2.50;1.02;;;20.90;43.80;;;;;;5047369;28;20029;-49
2022/10/11 04:18:10;;;;;;;3.33;1.10;;;20.90;43.80;;;;;;5050369;28;20025;-48
2022/10/11 04:20:36;;;;;;;2.60;1.08;;;20.90;43.80;;;;;;5048605;28;20071;-51
2022/10/11 04:23:02;;;;;;;1.88;0.88;;;20.90;43.90;;;;;;5050051;28;20045;-47
2022/10/11 04:25:28;;;;;;;3.78;0.90;;;20.90;43.90;;;;;;5049783;28;20487;-48
2022/10/11 04:27:53;;;;;;;2.13;0.90;;;20.90;43.90;;;;;;5050508;28;20035;-51
2022/10/11 04:30:20;;;;;;;2.00;1.05;;;20.90;43.90;;;;;;5047726;28;20083;-49
2022/10/11 04:32:45;;;;;;;2.08;1.00;;;20.90;43.90;;;;;;5051574;28;20072;-46
2022/10/11 04:35:11;;;;;;;2.47;1.10;;;20.90;43.90;;;;;;5050397;28;20041;-48
2022/10/11 04:37:37;;;;;;;3.95;1.00;;;20.90;44.00;;;;;;5049015;28;20124;-53
2022/10/11 04:40:07;;;;;;;2.30;1.08;;;20.90;44.00;;;;;;5050777;28;20040;-48
2022/10/11 04:42:33;;;;;;;2.47;1.00;;;20.90;44.00;;;;;;5051185;28;20040;-49
2022/10/11 04:44:59;;;;;;;2.10;1.05;;;20.90;44.00;;;;;;5053243;28;20380;-51
2022/10/11 04:47:25;;;;;;;2.13;0.90;;;20.90;44.00;;;;;;5047088;28;20035;-46
2022/10/11 04:49:50;;;;;;;1.95;0.93;;;20.90;44.10;;;;;;5048602;28;20036;-50
2022/10/11 04:52:16;;;;;;;2.65;0.93;;;20.90;44.10;;;;;;5046035;28;20388;-51
2022/10/11 04:54:42;;;;;;;1.48;0.85;;;20.90;44.10;;;;;;5041756;28;20021;-49
2022/10/11 04:57:08;;;;;;;2.25;0.93;;;20.90;44.10;;;;;;5047954;28;20043;-51
2022/10/11 04:59:33;;;;;;;2.20;1.08;;;20.90;44.10;;;;;;5047289;28;20025;-48
2022/10/11 05:01:59;;;;;;;2.08;1.00;;;20.90;44.10;;;;;;5048493;28;20029;-49
2022/10/11 05:04:25;;;;;;;2.38;1.00;;;20.90;44.10;;;;;;5049095;28;20083;-49
2022/10/11 05:06:51;;;;;;;2.30;1.00;;;20.90;44.10;;;;;;5047729;28;20437;-49
2022/10/11 05:09:17;;;;;;;3.72;1.05;;;20.90;44.20;;;;;;5047598;28;20047;-50
2022/10/11 05:11:43;;;;;;;2.45;1.05;;;20.90;44.20;;;;;;5049435;28;20061;-48
2022/10/11 05:14:08;;;;;;;3.67;1.20;;;20.90;44.20;;;;;;5051683;28;20494;-46
2022/10/11 05:16:34;;;;;;;1.73;1.00;;;20.90;44.10;;;;;;5048216;28;20025;-46
2022/10/11 05:19:00;;;;;;;2.90;1.10;;;20.90;44.20;;;;;;5048084;28;20033;-50
2022/10/11 05:21:28;;;;;;;3.00;1.30;;;20.90;44.20;;;;;;5047018;28;20094;-49
2022/10/11 05:23:55;;;;;;;1.90;1.00;;;20.90;44.10;;;;;;5046657;28;20150;-48
2022/10/11 05:26:23;;;;;;;1.65;0.95;;;20.90;44.20;;;;;;5048509;28;20056;-54
2022/10/11 05:28:49;;;;;;;3.55;1.30;;;20.80;44.10;;;;;;5048314;28;20112;-50
2022/10/11 05:31:15;;;;;;;1.70;0.95;;;20.90;44.20;;;;;;5049071;28;20124;-50
2022/10/11 05:33:42;;;;;;;1.90;1.20;;;20.90;44.20;;;;;;5049807;28;20068;-50
2022/10/11 05:36:08;;;;;;;1.55;0.90;;;20.90;44.20;;;;;;5049920;28;20033;-47
2022/10/11 05:38:34;;;;;;;1.88;1.00;;;20.90;44.20;;;;;;5044916;28;20988;-48
2022/10/11 05:41:01;;;;;;;2.17;1.00;;;20.90;44.10;;;;;;5049972;28;20477;-51
2022/10/11 05:43:28;;;;;;;2.42;1.17;;;20.80;44.10;;;;;;5051144;28;20400;-47
2022/10/11 05:45:54;;;;;;;2.33;1.10;;;20.80;44.00;;;;;;5046646;28;20021;-48
2022/10/11 05:48:20;;;;;;;3.15;1.30;;;20.90;44.00;;;;;;5049353;28;20047;-49
2022/10/11 05:50:46;;;;;;;2.15;1.08;;;20.80;44.00;;;;;;5047312;28;20033;-50
2022/10/11 05:53:12;;;;;;;2.38;0.82;;;20.80;43.90;;;;;;5048033;28;20139;-49
2022/10/11 05:55:40;;;;;;;2.63;1.20;;;20.90;43.90;;;;;;5047619;28;20025;-47
2022/10/11 05:58:09;;;;;;;2.13;1.00;;;20.80;43.90;;;;;;5048200;28;20103;-52
2022/10/11 06:00:36;;;;;;;5.32;1.20;;;20.80;43.90;;;;;;5044079;28;20482;-47
2022/10/11 06:03:04;;;;;;;2.63;1.10;;;20.80;43.80;;;;;;5046312;28;20353;-48
2022/10/11 06:05:30;;;;;;;4.53;1.50;;;20.80;43.80;;;;;;5046671;28;20460;-49
2022/10/11 06:07:57;;;;;;;3.25;1.08;;;20.80;43.80;;;;;;5046668;28;20063;-52
2022/10/11 06:10:23;;;;;;;2.05;0.90;;;20.80;43.80;;;;;;5049801;28;20048;-48
2022/10/11 06:12:49;;;;;;;4.93;1.30;;;20.80;43.90;;;;;;5049163;28;20037;-49
2022/10/11 06:15:15;;;;;;;2.42;0.80;;;20.80;43.80;;;;;;5051600;28;20035;-50
2022/10/11 06:17:40;;;;;;;2.47;1.23;;;20.80;43.80;;;;;;5049550;28;20060;-49
2022/10/11 06:20:07;;;;;;;1.88;1.10;;;20.80;43.90;;;;;;5051356;28;20029;-49
2022/10/11 06:22:33;;;;;;;2.35;1.00;;;20.80;43.90;;;;;;5047914;28;20104;-46
2022/10/11 06:24:58;;;;;;;6.90;1.20;;;20.80;43.90;;;;;;5045479;28;20105;-49
2022/10/11 06:27:24;;;;;;;2.28;1.05;;;20.80;44.00;;;;;;5045834;28;20033;-50
2022/10/11 06:29:50;;;;;;;2.58;1.20;;;20.80;44.00;;;;;;5049320;28;20124;-48
2022/10/11 06:32:16;;;;;;;3.33;1.05;;;20.80;44.10;;;;;;5045184;28;20024;-50
2022/10/11 06:34:42;;;;;;;3.03;1.27;;;20.80;44.00;;;;;;5039853;28;20032;-52
2022/10/11 06:37:07;;;;;;;2.63;1.08;;;20.80;44.00;;;;;;5041394;28;20021;-46
2022/10/11 06:39:33;;;;;;;1.75;1.00;;;20.80;44.00;;;;;;5042218;28;20029;-50
2022/10/11 06:42:00;;;;;;;1.88;1.10;;;20.80;44.00;;;;;;5046975;28;20068;-49
2022/10/11 06:44:26;;;;;;;2.38;1.13;;;20.80;44.00;;;;;;5043611;28;20111;-48
2022/10/11 06:46:51;;;;;;;2.90;1.10;;;20.80;44.00;;;;;;5040278;28;20460;-52
2022/10/11 06:49:17;;;;;;;2.13;1.00;;;20.80;44.00;;;;;;5039519;28;20258;-48
2022/10/11 06:51:43;;;;;;;3.63;1.30;;;20.80;44.00;;;;;;5041849;28;20330;-51
2022/10/11 06:54:09;;;;;;;3.40;1.23;;;20.80;44.10;;;;;;5049217;28;20352;-46
2022/10/11 06:56:35;;;;;;;2.90;1.20;;;20.80;44.20;;;;;;5046157;28;20032;-51
2022/10/11 06:59:02;;;;;;;3.08;1.10;;;20.80;44.90;;;;;;5044003;28;20029;-51
2022/10/11 07:01:28;;;;;;;2.53;1.23;;;20.80;44.30;;;;;;5045909;28;20033;-50
2022/10/11 07:03:56;;;;;;;3.80;1.25;;;20.80;44.40;;;;;;5044077;28;20063;-49
2022/10/11 07:06:27;;;;;;;2.90;1.20;;;20.90;44.50;;;;;;5045370;28;20028;-53
2022/10/11 07:08:53;;;;;;;2.63;1.00;;;20.90;44.60;;;;;;5048277;28;20056;-50
2022/10/11 07:11:24;;;;;;;1.73;1.00;;;20.80;44.50;;;;;;5046340;28;20127;-51
2022/10/11 07:13:55;;;;;;;1.85;1.00;;;20.90;44.60;;;;;;5045449;28;20548;-45
2022/10/11 07:16:39;;;;;;;2.78;1.20;;;20.90;44.70;;;;;;5050570;28;20044;-51
2022/10/11 07:19:06;;;;;;;2.35;1.52;;;20.90;44.80;;;;;;5046268;28;20028;-49
2022/10/11 07:21:33;;;;;;;2.65;1.00;;;20.90;44.80;;;;;;5046380;28;20033;-51
2022/10/11 07:24:00;;;;;;;2.40;1.00;;;20.90;44.90;;;;;;5045191;28;20110;-49
2022/10/11 07:26:27;;;;;;;2.80;1.38;;;20.90;44.90;;;;;;5048754;28;20017;-51
2022/10/11 07:28:53;;;;;;;2.58;1.15;;;20.90;45.00;;;;;;5045283;28;20041;-49
2022/10/11 07:31:21;;;;;;;3.08;1.30;;;20.90;45.00;;;;;;5049077;28;20036;-47
2022/10/11 07:33:47;;;;;;;2.83;1.25;;;20.90;44.90;;;;;;5043232;28;20452;-48
2022/10/11 07:36:13;;;;;;;5.03;1.30;;;20.90;44.80;;;;;;5047833;28;20033;-50
2022/10/11 07:38:40;;;;;;;3.25;1.20;;;20.90;44.70;;;;;;5047119;28;20152;-50
2022/10/11 07:41:07;;;;;;;4.28;1.20;;;20.90;44.60;;;;;;5049174;28;20083;-49
2022/10/11 07:43:33;;;;;;;3.35;1.42;;;20.90;44.60;;;;;;5046748;28;20036;-50
2022/10/11 07:46:02;;;;;;;2.30;1.10;;;20.90;44.60;;;;;;5045609;28;20033;-49
2022/10/11 07:48:35;;;;;;;2.08;1.13;;;20.90;44.60;;;;;;5041118;28;20069;-46
2022/10/11 07:51:14;;;;;;;3.10;1.00;;;20.90;44.60;;;;;;5041619;28;20075;-52
2022/10/11 07:53:44;;;;;;;1.80;0.90;;;20.90;44.60;;;;;;5045965;28;20037;-50
2022/10/11 07:56:11;;;;;;;3.03;1.20;;;20.90;44.60;;;;;;5047942;28;20367;-47
2022/10/11 07:58:38;;;;;;;4.72;1.30;;;20.90;44.60;;;;;;5040202;28;20029;-51
2022/10/11 08:01:04;;;;;;;1.70;1.02;;;20.90;44.60;;;;;;5042057;28;20367;-51
2022/10/11 08:03:30;;;;;;;3.63;1.65;;;20.90;44.60;;;;;;5042894;28;20456;-49
2022/10/11 08:06:00;;;;;;;2.67;1.38;;;20.90;44.60;;;;;;5054047;28;20108;-49
2022/10/11 08:08:26;;;;;;;3.20;1.25;;;20.90;44.60;;;;;;5050772;28;20091;-49
2022/10/11 08:10:52;;;;;;;6.28;1.65;;;20.90;44.60;;;;;;5046557;28;20033;-49
2022/10/11 08:13:19;;;;;;;3.50;1.35;;;20.90;44.50;;;;;;5046353;28;20040;-49
2022/10/11 08:15:50;;;;;;;3.47;1.38;;;20.90;44.50;;;;;;5049336;28;20108;-55
2022/10/11 08:18:16;;;;;;;5.25;1.40;;;20.90;44.50;;;;;;5047411;28;20024;-48
2022/10/11 08:20:42;;;;;;;4.53;1.20;;;20.90;44.50;;;;;;5046303;28;20043;-48
2022/10/11 08:23:08;;;;;;;4.25;1.67;;;20.90;44.50;;;;;;5046491;28;20025;-50
2022/10/11 08:25:42;;;;;;;3.70;1.30;;;20.90;44.50;;;;;;5043895;28;20029;-55
2022/10/11 08:28:09;;;;;;;;;;;20.90;44.60;;;;;;5049446;28;20025;-61
2022/10/11 08:30:35;;;;;;;3.50;1.27;;;20.90;44.80;;;;;;5049751;28;19920;-56
2022/10/11 08:33:01;;;;;;;4.30;1.20;;;20.90;45.10;;;;;;5049036;28;20100;-55
2022/10/11 08:35:28;;;;;;;3.40;1.52;;;20.90;45.30;;;;;;5048863;28;20144;-62
2022/10/11 08:37:54;;;;;;;3.10;1.50;;;21.00;45.40;;;;;;5047796;28;20032;-57
2022/10/11 08:40:21;;;;;;;2.80;1.10;;;21.10;45.40;;;;;;5046354;28;20029;-48
2022/10/11 08:42:54;;;;;;;2.50;1.25;;;21.20;45.40;;;;;;5042084;28;20048;-53
2022/10/11 08:45:26;;;;;;;4.43;1.27;;;21.20;45.20;;;;;;5045283;28;20348;-49
2022/10/11 08:48:05;;;;;;;3.13;1.20;;;21.30;44.90;;;;;;5041587;28;20403;-50
2022/10/11 08:50:31;;;;;;;2.00;1.20;;;21.40;44.60;;;;;;5043192;28;20127;-55
2022/10/11 08:53:32;;;;;;;4.05;1.48;;;21.50;44.40;;;;;;5043603;28;20399;-54
2022/10/11 08:56:00;;;;;;;3.90;1.40;;;21.50;44.20;;;;;;5044549;28;20452;-55
2022/10/11 08:59:14;;;;;;;5.05;1.55;;;21.60;44.00;;;;;;5042947;28;20121;-47
2022/10/11 09:01:46;;;;;;;3.25;1.30;;;21.60;43.90;;;;;;5040977;28;20045;-53
2022/10/11 09:04:16;;;;;;;4.07;1.70;;;21.50;43.80;;;;;;5046260;28;20079;-48
2022/10/11 09:07:06;;;;;;;3.92;1.77;;;21.50;43.80;;;;;;5044746;28;20030;-49
2022/10/11 09:09:50;;;;;;;2.75;1.20;;;21.50;43.70;;;;;;5049830;28;20460;-48
2022/10/11 09:12:55;;;;;;;3.22;1.40;;;21.50;43.70;;;;;;5045556;28;20055;-47
2022/10/11 09:15:39;;;;;;;3.40;1.58;;;21.50;43.70;;;;;;5046785;28;20028;-50
2022/10/11 09:18:11;;;;;;;2.95;1.45;;;21.50;43.70;;;;;;5044720;28;20116;-49
2022/10/11 09:21:16;;;;;;;3.05;1.38;;;21.50;43.90;;;;;;5048523;28;20455;-47
2022/10/11 09:24:02;;;;;;;1.98;1.00;;;21.50;44.20;;;;;;5046929;28;20033;-51
2022/10/11 09:26:52;;;;;;;2.13;1.08;;;21.40;44.40;;;;;;5044685;28;21849;-47
2022/10/11 09:29:30;;;;;;;2.50;1.02;;;21.40;44.60;;;;;;5039906;28;20478;-50
2022/10/11 09:31:57;;;;;;;3.88;1.27;;;21.40;44.60;;;;;;5045894;28;20037;-49
2022/10/11 09:34:31;;;;;;;2.55;1.20;;;21.40;44.50;;;;;;5045848;28;20049;-54
2022/10/11 09:37:08;;;;;;;3.72;1.40;;;21.40;44.40;;;;;;5045112;28;20044;-51
2022/10/11 09:39:38;;;;;;;2.67;1.20;;;21.40;44.40;;;;;;5046555;28;20048;-53
2022/10/11 09:42:06;;;;;;;2.65;1.00;;;21.40;44.40;;;;;;5047330;28;20044;-49
2022/10/11 09:44:45;;;;;;;4.03;1.50;;;21.30;44.30;;;;;;5042824;28;20033;-52
2022/10/11 09:47:20;;;;;;;2.85;1.10;;;21.30;44.30;;;;;;5045905;28;20044;-49
2022/10/11 09:49:59;;;;;;;2.80;1.23;;;21.30;44.40;;;;;;5046104;28;20119;-51
2022/10/11 09:52:25;;;;;;;2.67;1.30;;;21.30;44.30;;;;;;5046904;28;20051;-49
2022/10/11 09:54:57;;;;;;;3.78;1.10;;;21.30;44.40;;;;;;5043442;28;20029;-53
2022/10/11 09:57:26;;;;;;;4.18;1.27;;;21.30;44.90;;;;;;5049657;28;20479;-52
2022/10/11 10:00:10;;;;;;;2.67;1.25;;;21.30;45.30;;;;;;5049047;28;20119;-49
2022/10/11 10:02:56;;;;;;;5.20;1.40;;;21.30;45.70;;;;;;5045283;28;20033;-49
2022/10/11 10:05:30;;;;;;;2.67;1.10;;;21.30;45.90;;;;;;5047161;28;20028;-51
2022/10/11 10:08:21;;;;;;;4.45;1.33;;;21.30;46.00;;;;;;5042968;28;21791;-52
2022/10/11 10:11:00;;;;;;;2.97;1.20;;;21.30;46.00;;;;;;5045755;28;20045;-51
2022/10/11 10:13:44;;;;;;;2.42;1.00;;;21.30;46.00;;;;;;5041773;28;20044;-50
2022/10/11 10:16:30;;;;;;;6.53;1.50;;;21.30;45.90;;;;;;5043028;28;20041;-51
2022/10/11 10:19:04;;;;;;;5.05;1.15;;;21.30;45.90;;;;;;5044511;28;20117;-51
2022/10/11 10:21:33;;;;;;;2.92;1.15;;;21.30;46.10;;;;;;5045620;28;20033;-55
2022/10/11 10:24:03;;;;;;;5.90;1.55;;;21.30;46.40;;;;;;5045973;28;20036;-56
2022/10/11 10:26:31;;;;;;;6.88;1.70;;;21.30;46.40;;;;;;5045868;28;20037;-52
2022/10/11 10:29:09;;;;;;;5.90;1.25;;;21.30;46.40;;;;;;5043700;28;20028;-55
2022/10/11 10:31:35;;;;;;;7.95;1.17;;;21.40;46.50;;;;;;5044277;28;20124;-55
2022/10/11 10:34:05;;;;;;;5.72;1.20;;;21.40;46.30;;;;;;5044179;28;20079;-59
2022/10/11 10:36:38;;;;;;;7.45;1.35;;;21.50;46.10;;;;;;5042775;28;20056;-60
2022/10/11 10:39:24;;;;;;;7.10;1.60;;;21.60;45.90;;;;;;5050533;28;20059;-57
2022/10/11 10:41:50;;;;;;;6.97;1.80;;;21.70;46.00;;;;;;5051656;28;20380;-56
2022/10/11 10:44:16;;;;;;;6.60;1.08;;;21.80;45.80;;;;;;5046541;28;20036;-53
2022/10/11 10:46:52;;;;;;;5.43;1.40;;;21.90;45.70;;;;;;5046063;28;20032;-56
2022/10/11 10:49:44;;;;;;;6.82;1.50;;;22.00;45.40;;;;;;5043991;28;20698;-54
2022/10/11 10:52:17;;;;;;;4.88;1.40;;;22.10;45.20;;;;;;5045035;28;20041;-53
2022/10/11 10:54:48;;;;;;;7.13;1.27;;;22.20;44.90;;;;;;5044077;28;20160;-52
2022/10/11 10:57:46;;;;;;;3.25;1.02;;;22.30;44.60;;;;;;5043076;28;20038;-54
2022/10/11 11:00:16;;;;;;;3.65;1.10;;;22.40;44.40;;;;;;5037698;28;20033;-56
2022/10/11 11:03:01;;;;;;;4.82;1.25;;;22.50;44.20;;;;;;5050127;28;20435;-52
2022/10/11 11:05:42;;;;;;;4.72;1.02;;;22.60;44.00;;;;;;5042416;28;20026;-53
2022/10/11 11:08:26;;;;;;;4.72;1.27;;;22.70;43.80;;;;;;5043751;28;20026;-61
2022/10/11 11:10:57;;;;;;;6.15;1.40;;;22.80;43.50;;;;;;5042192;28;20496;-67
2022/10/11 11:13:44;;;;;;;4.70;1.27;;;22.80;43.30;;;;;;5045749;28;20035;-56
2022/10/11 11:16:16;;;;;;;5.15;1.40;;;22.90;43.00;;;;;;5042237;28;20034;-54
2022/10/11 11:18:49;;;;;;;4.15;1.40;;;23.00;42.90;;;;;;5047425;28;20364;-58
2022/10/11 11:21:34;;;;;;;6.93;1.10;;;23.00;42.70;;;;;;5042425;28;20048;-57
2022/10/11 11:24:26;;;;;;;5.53;1.08;;;23.10;42.50;;;;;;5054957;28;20424;-56
2022/10/11 11:27:05;;;;;;;11.57;1.55;;;23.20;42.30;;;;;;5051447;28;20033;-58
2022/10/11 11:29:57;;;;;;;5.15;1.40;;;23.20;42.00;;;;;;5055185;28;20032;-51
2022/10/11 11:32:57;;;;;;;4.88;1.20;;;23.30;41.90;;;;;;5052646;28;20041;-51
2022/10/11 11:35:29;;;;;;;4.18;1.40;;;23.40;41.70;;;;;;5035293;28;20445;-48
2022/10/11 11:38:02;;;;;;;5.15;1.23;;;23.40;41.60;;;;;;5034410;28;20029;-48
2022/10/11 11:40:33;;;;;;;5.13;0.88;;;23.40;41.60;;;;;;5042852;28;20037;-48
2022/10/11 11:43:11;;;;;;;5.40;1.15;;;23.50;41.60;;;;;;5054535;28;20452;-49
2022/10/11 11:46:03;;;;;;;4.85;1.20;;;23.50;41.60;;;;;;5052748;28;20354;-49
2022/10/11 11:48:29;;;;;;;5.78;1.17;;;23.60;41.60;;;;;;5054688;28;20033;-47
2022/10/11 11:50:54;;;;;;;4.05;1.20;;;23.60;41.50;;;;;;5048159;28;20048;-50
2022/10/11 11:53:46;;;;;;;7.53;1.23;;;23.60;41.60;;;;;;5052098;28;20467;-48
2022/10/11 11:56:30;;;;;;;6.18;1.00;;;23.60;41.40;;;;;;5026254;28;20087;-47
2022/10/11 11:59:09;;;;;;;6.95;1.23;;;23.70;41.40;;;;;;5051777;28;20451;-48
2022/10/11 12:01:44;;;;;;;7.03;1.30;;;23.70;41.30;;;;;;5042513;28;20037;-47
2022/10/11 12:04:30;;;;;;;4.97;1.40;;;23.70;41.30;;;;;;5043841;28;20041;-51
2022/10/11 12:07:06;;;;;;;7.35;1.38;;;23.80;41.40;;;;;;5048775;28;20396;-49
2022/10/11 12:09:33;;;;;;;7.38;1.30;;;23.80;41.30;;;;;;5045779;28;20053;-47
2022/10/11 12:12:02;;;;;;;6.35;1.33;;;23.80;41.30;;;;;;5050204;28;20111;-49
2022/10/11 12:14:40;;;;;;;4.82;1.38;;;23.80;41.30;;;;;;5047818;28;20037;-52
2022/10/11 12:17:10;;;;;;;2.83;1.05;;;23.80;41.30;;;;;;5046750;28;20103;-46
2022/10/11 12:19:38;;;;;;;5.00;1.30;;;23.90;41.30;;;;;;5045992;28;20021;-49
2022/10/11 12:22:27;;;;;;;3.83;1.42;;;23.90;41.20;;;;;;5053689;28;20025;-47
2022/10/11 12:24:58;;;;;;;3.55;1.02;;;24.00;41.80;;;;;;5053098;28;20035;-49
2022/10/11 12:27:40;;;;;;;4.90;1.48;;;24.00;41.10;;;;;;5047145;28;20325;-50
2022/10/11 12:30:47;;;;;;;3.17;1.00;;;24.00;41.10;;;;;;5045946;28;20479;-48
2022/10/11 12:33:44;;;;;;;2.72;1.10;;;24.00;41.00;;;;;;5048502;28;20126;-49
2022/10/11 12:36:28;;;;;;;4.07;1.10;;;24.00;41.00;;;;;;5048923;28;20029;-51
2022/10/11 12:39:21;;;;;;;3.90;1.20;;;24.00;40.90;;;;;;5052575;28;20340;-50
2022/10/11 12:41:50;;;;;;;4.30;0.80;;;24.10;40.80;;;;;;5029016;28;20122;-49
2022/10/11 12:44:27;;;;;;;5.07;1.10;;;24.10;40.80;;;;;;5051662;28;20029;-49
2022/10/11 12:46:53;;;;;;;3.38;1.10;;;24.10;40.70;;;;;;5051200;28;20040;-49
2022/10/11 12:49:40;;;;;;;3.75;1.23;;;24.10;40.70;;;;;;5048594;28;20045;-55
2022/10/11 12:52:15;;;;;;;5.22;1.00;;;24.10;40.90;;;;;;5049695;28;20068;-53
2022/10/11 12:54:56;;;;;;;4.55;1.30;;;24.10;40.90;;;;;;5049464;28;20036;-52
2022/10/11 12:57:41;;;;;;;3.95;1.25;;;24.10;40.90;;;;;;5049411;28;20021;-58
2022/10/11 13:00:20;;;;;;;5.13;1.20;;;24.20;40.70;;;;;;5050594;28;20021;-59
2022/10/11 13:02:48;;;;;;;5.13;0.95;;;24.20;40.60;;;;;;5052512;28;20513;-59
2022/10/11 13:05:44;;;;;;;4.07;1.00;;;24.20;40.60;;;;;;5054370;28;20398;-58
2022/10/11 13:08:24;;;;;;;5.38;1.25;;;24.20;40.60;;;;;;5044568;28;20052;-57
2022/10/11 13:10:52;;;;;;;4.60;0.90;;;24.30;40.70;;;;;;5051119;28;20044;-58
2022/10/11 13:13:23;;;;;;;3.85;1.00;;;24.30;40.70;;;;;;5051305;28;20033;-60